sensor_id;sensor_type;location;lat;lon;timestamp;temperature;humidity
18361;SHT31;9308;48.550;9.108;2023-02-22T00:00:09;5.45;71.83
18361;SHT31;9308;48.550;9.108;2023-02-22T00:02:49;5.41;72.51
18361;SHT31;9308;48.550;9.108;2023-02-22T00:05:16;5.48;72.01
18361;SHT31;9308;48.550;9.108;2023-02-22T00:07:47;5.51;71.88
18361;SHT31;9308;48.550;9.108;2023-02-22T00:10:16;5.45;72.45
18361;SHT31;9308;48.550;9.108;2023-02-22T00:12:46;5.39;72.71
18361;SHT31;9308;48.550;9.108;2023-02-22T00:15:16;5.42;72.42
18361;SHT31;9308;48.550;9.108;2023-02-22T00:17:42;5.49;72.20
18361;SHT31;9308;48.550;9.108;2023-02-22T00:20:09;5.52;72.35
18361;SHT31;9308;48.550;9.108;2023-02-22T00:22:43;5.27;72.90
18361;SHT31;9308;48.550;9.108;2023-02-22T00:25:12;5.30;73.04
18361;SHT31;9308;48.550;9.108;2023-02-22T00:27:37;5.34;72.79
18361;SHT31;9308;48.550;9.108;2023-02-22T00:30:05;5.20;72.73
18361;SHT31;9308;48.550;9.108;2023-02-22T00:32:31;5.32;72.59
18361;SHT31;9308;48.550;9.108;2023-02-22T00:34:56;5.34;72.50
18361;SHT31;9308;48.550;9.108;2023-02-22T00:37:22;5.27;73.49
18361;SHT31;9308;48.550;9.108;2023-02-22T00:39:48;5.14;73.32
18361;SHT31;9308;48.550;9.108;2023-02-22T00:42:15;5.31;72.68
18361;SHT31;9308;48.550;9.108;2023-02-22T00:44:41;5.35;72.59
18361;SHT31;9308;48.550;9.108;2023-02-22T00:47:07;5.23;72.85
18361;SHT31;9308;48.550;9.108;2023-02-22T00:49:33;5.35;72.32
18361;SHT31;9308;48.550;9.108;2023-02-22T00:51:59;5.34;73.20
18361;SHT31;9308;48.550;9.108;2023-02-22T00:54:25;5.28;72.81
18361;SHT31;9308;48.550;9.108;2023-02-22T00:56:51;5.20;73.19
18361;SHT31;9308;48.550;9.108;2023-02-22T00:59:16;5.20;73.58
18361;SHT31;9308;48.550;9.108;2023-02-22T01:01:41;5.17;73.53
18361;SHT31;9308;48.550;9.108;2023-02-22T01:04:08;5.15;73.40
18361;SHT31;9308;48.550;9.108;2023-02-22T01:06:34;5.06;73.59
18361;SHT31;9308;48.550;9.108;2023-02-22T01:09:00;5.17;72.86
18361;SHT31;9308;48.550;9.108;2023-02-22T01:11:26;4.96;73.66
18361;SHT31;9308;48.550;9.108;2023-02-22T01:13:52;4.92;73.68
18361;SHT31;9308;48.550;9.108;2023-02-22T01:16:19;4.92;73.34
18361;SHT31;9308;48.550;9.108;2023-02-22T01:18:44;4.85;73.54
18361;SHT31;9308;48.550;9.108;2023-02-22T01:21:10;5.00;73.43
18361;SHT31;9308;48.550;9.108;2023-02-22T01:23:35;4.95;73.95
18361;SHT31;9308;48.550;9.108;2023-02-22T01:26:01;4.86;73.48
18361;SHT31;9308;48.550;9.108;2023-02-22T01:28:30;4.86;73.96
18361;SHT31;9308;48.550;9.108;2023-02-22T01:30:56;4.86;73.60
18361;SHT31;9308;48.550;9.108;2023-02-22T01:33:22;4.80;74.14
18361;SHT31;9308;48.550;9.108;2023-02-22T01:35:47;4.85;73.55
18361;SHT31;9308;48.550;9.108;2023-02-22T01:38:15;4.68;74.25
18361;SHT31;9308;48.550;9.108;2023-02-22T01:40:45;4.73;73.97
18361;SHT31;9308;48.550;9.108;2023-02-22T01:43:16;4.80;73.49
18361;SHT31;9308;48.550;9.108;2023-02-22T01:46:03;4.71;73.66
18361;SHT31;9308;48.550;9.108;2023-02-22T01:48:43;4.57;74.10
18361;SHT31;9308;48.550;9.108;2023-02-22T01:56:10;4.72;73.74
18361;SHT31;9308;48.550;9.108;2023-02-22T01:58:39;4.66;73.94
18361;SHT31;9308;48.550;9.108;2023-02-22T02:01:06;4.62;74.04
18361;SHT31;9308;48.550;9.108;2023-02-22T02:03:34;4.77;73.77
18361;SHT31;9308;48.550;9.108;2023-02-22T02:06:05;4.80;73.53
18361;SHT31;9308;48.550;9.108;2023-02-22T02:08:52;4.66;73.63
18361;SHT31;9308;48.550;9.108;2023-02-22T02:11:21;4.65;73.94
18361;SHT31;9308;48.550;9.108;2023-02-22T02:13:54;4.66;73.53
18361;SHT31;9308;48.550;9.108;2023-02-22T02:16:22;4.54;74.25
18361;SHT31;9308;48.550;9.108;2023-02-22T02:18:49;4.49;74.49
18361;SHT31;9308;48.550;9.108;2023-02-22T02:35:18;4.32;74.80
18361;SHT31;9308;48.550;9.108;2023-02-22T02:40:39;4.41;74.66
18361;SHT31;9308;48.550;9.108;2023-02-22T02:46:02;4.35;74.32
18361;SHT31;9308;48.550;9.108;2023-02-22T02:48:29;4.32;74.67
18361;SHT31;9308;48.550;9.108;2023-02-22T02:50:58;4.39;74.75
18361;SHT31;9308;48.550;9.108;2023-02-22T02:53:30;4.34;74.98
18361;SHT31;9308;48.550;9.108;2023-02-22T02:56:00;4.42;75.31
18361;SHT31;9308;48.550;9.108;2023-02-22T02:58:25;4.47;75.44
18361;SHT31;9308;48.550;9.108;2023-02-22T03:00:52;4.45;75.09
18361;SHT31;9308;48.550;9.108;2023-02-22T03:03:34;4.39;75.05
18361;SHT31;9308;48.550;9.108;2023-02-22T03:09:01;4.35;74.80
18361;SHT31;9308;48.550;9.108;2023-02-22T03:11:37;4.28;74.90
18361;SHT31;9308;48.550;9.108;2023-02-22T03:14:24;4.20;74.69
18361;SHT31;9308;48.550;9.108;2023-02-22T03:17:01;4.14;75.13
18361;SHT31;9308;48.550;9.108;2023-02-22T03:19:35;4.20;74.89
18361;SHT31;9308;48.550;9.108;2023-02-22T03:24:55;4.04;75.10
18361;SHT31;9308;48.550;9.108;2023-02-22T03:27:42;3.94;75.10
18361;SHT31;9308;48.550;9.108;2023-02-22T03:30:17;3.90;75.21
18361;SHT31;9308;48.550;9.108;2023-02-22T03:32:50;3.89;75.22
18361;SHT31;9308;48.550;9.108;2023-02-22T03:35:19;3.94;75.25
18361;SHT31;9308;48.550;9.108;2023-02-22T03:37:50;3.90;74.84
18361;SHT31;9308;48.550;9.108;2023-02-22T03:40:27;3.87;75.37
18361;SHT31;9308;48.550;9.108;2023-02-22T03:43:12;3.85;75.41
18361;SHT31;9308;48.550;9.108;2023-02-22T03:45:41;3.96;75.15
18361;SHT31;9308;48.550;9.108;2023-02-22T03:50:39;3.94;75.59
18361;SHT31;9308;48.550;9.108;2023-02-22T03:53:05;3.97;75.62
18361;SHT31;9308;48.550;9.108;2023-02-22T03:55:32;3.82;75.63
18361;SHT31;9308;48.550;9.108;2023-02-22T03:57:59;3.86;75.52
18361;SHT31;9308;48.550;9.108;2023-02-22T04:00:28;3.90;74.94
18361;SHT31;9308;48.550;9.108;2023-02-22T04:02:55;3.89;75.15
18361;SHT31;9308;48.550;9.108;2023-02-22T04:05:20;3.73;75.66
18361;SHT31;9308;48.550;9.108;2023-02-22T04:07:46;3.85;75.78
18361;SHT31;9308;48.550;9.108;2023-02-22T04:10:13;3.86;75.52
18361;SHT31;9308;48.550;9.108;2023-02-22T04:12:39;3.87;75.65
18361;SHT31;9308;48.550;9.108;2023-02-22T04:15:06;3.81;75.70
18361;SHT31;9308;48.550;9.108;2023-02-22T04:17:32;3.75;76.04
18361;SHT31;9308;48.550;9.108;2023-02-22T04:19:57;3.79;76.03
18361;SHT31;9308;48.550;9.108;2023-02-22T04:22:22;3.58;76.70
18361;SHT31;9308;48.550;9.108;2023-02-22T04:24:48;3.30;77.82
18361;SHT31;9308;48.550;9.108;2023-02-22T04:27:14;3.40;77.46
18361;SHT31;9308;48.550;9.108;2023-02-22T04:29:39;3.51;76.64
18361;SHT31;9308;48.550;9.108;2023-02-22T04:32:05;3.50;75.95
18361;SHT31;9308;48.550;9.108;2023-02-22T04:34:30;3.51;75.98
18361;SHT31;9308;48.550;9.108;2023-02-22T04:36:56;3.51;76.35
18361;SHT31;9308;48.550;9.108;2023-02-22T04:39:21;3.59;75.96
18361;SHT31;9308;48.550;9.108;2023-02-22T04:41:47;3.48;76.13
18361;SHT31;9308;48.550;9.108;2023-02-22T04:44:13;3.43;76.21
18361;SHT31;9308;48.550;9.108;2023-02-22T04:46:38;3.40;76.45
18361;SHT31;9308;48.550;9.108;2023-02-22T04:49:03;3.34;76.03
18361;SHT31;9308;48.550;9.108;2023-02-22T04:51:29;3.34;76.32
18361;SHT31;9308;48.550;9.108;2023-02-22T04:53:55;3.41;75.48
18361;SHT31;9308;48.550;9.108;2023-02-22T04:56:22;3.38;76.03
18361;SHT31;9308;48.550;9.108;2023-02-22T04:58:47;3.41;75.51
18361;SHT31;9308;48.550;9.108;2023-02-22T05:01:13;3.25;75.99
18361;SHT31;9308;48.550;9.108;2023-02-22T05:03:39;3.25;75.70
18361;SHT31;9308;48.550;9.108;2023-02-22T05:06:05;3.21;75.51
18361;SHT31;9308;48.550;9.108;2023-02-22T05:08:31;3.18;76.11
18361;SHT31;9308;48.550;9.108;2023-02-22T05:10:56;3.34;75.31
18361;SHT31;9308;48.550;9.108;2023-02-22T05:13:22;3.34;74.96
18361;SHT31;9308;48.550;9.108;2023-02-22T05:15:47;3.25;75.56
18361;SHT31;9308;48.550;9.108;2023-02-22T05:18:13;3.10;75.65
18361;SHT31;9308;48.550;9.108;2023-02-22T05:20:39;3.24;76.19
18361;SHT31;9308;48.550;9.108;2023-02-22T05:23:04;3.41;75.17
18361;SHT31;9308;48.550;9.108;2023-02-22T05:25:30;3.28;75.62
18361;SHT31;9308;48.550;9.108;2023-02-22T05:27:58;3.25;76.03
18361;SHT31;9308;48.550;9.108;2023-02-22T05:30:27;3.40;76.11
18361;SHT31;9308;48.550;9.108;2023-02-22T05:32:53;3.43;75.55
18361;SHT31;9308;48.550;9.108;2023-02-22T05:35:20;3.54;75.09
18361;SHT31;9308;48.550;9.108;2023-02-22T05:37:46;3.44;75.50
18361;SHT31;9308;48.550;9.108;2023-02-22T05:40:12;3.44;75.89
18361;SHT31;9308;48.550;9.108;2023-02-22T05:42:39;3.48;75.65
18361;SHT31;9308;48.550;9.108;2023-02-22T05:45:06;3.38;76.41
18361;SHT31;9308;48.550;9.108;2023-02-22T05:47:31;3.47;76.02
18361;SHT31;9308;48.550;9.108;2023-02-22T05:49:57;3.52;75.37
18361;SHT31;9308;48.550;9.108;2023-02-22T05:52:22;3.48;76.00
18361;SHT31;9308;48.550;9.108;2023-02-22T05:54:48;3.51;75.98
18361;SHT31;9308;48.550;9.108;2023-02-22T05:57:13;3.52;75.95
18361;SHT31;9308;48.550;9.108;2023-02-22T05:59:38;3.28;76.00
18361;SHT31;9308;48.550;9.108;2023-02-22T06:02:04;3.37;75.80
18361;SHT31;9308;48.550;9.108;2023-02-22T06:04:29;3.34;75.82
18361;SHT31;9308;48.550;9.108;2023-02-22T06:06:55;3.35;75.73
18361;SHT31;9308;48.550;9.108;2023-02-22T06:09:20;3.31;75.86
18361;SHT31;9308;48.550;9.108;2023-02-22T06:11:46;3.18;76.20
18361;SHT31;9308;48.550;9.108;2023-02-22T06:14:11;3.32;75.68
18361;SHT31;9308;48.550;9.108;2023-02-22T06:16:36;3.24;76.02
18361;SHT31;9308;48.550;9.108;2023-02-22T06:19:02;3.35;76.00
18361;SHT31;9308;48.550;9.108;2023-02-22T06:21:27;3.24;76.21
18361;SHT31;9308;48.550;9.108;2023-02-22T06:23:54;3.35;75.74
18361;SHT31;9308;48.550;9.108;2023-02-22T06:26:19;3.44;75.69
18361;SHT31;9308;48.550;9.108;2023-02-22T06:28:45;3.43;75.39
18361;SHT31;9308;48.550;9.108;2023-02-22T06:31:11;3.40;75.67
18361;SHT31;9308;48.550;9.108;2023-02-22T06:33:36;3.41;75.97
18361;SHT31;9308;48.550;9.108;2023-02-22T06:36:02;3.71;76.40
18361;SHT31;9308;48.550;9.108;2023-02-22T06:38:28;3.78;76.17
18361;SHT31;9308;48.550;9.108;2023-02-22T06:40:54;4.00;75.59
18361;SHT31;9308;48.550;9.108;2023-02-22T06:43:21;4.07;75.48
18361;SHT31;9308;48.550;9.108;2023-02-22T06:45:46;4.13;75.53
18361;SHT31;9308;48.550;9.108;2023-02-22T06:48:12;4.18;75.60
18361;SHT31;9308;48.550;9.108;2023-02-22T06:50:38;4.45;74.67
18361;SHT31;9308;48.550;9.108;2023-02-22T06:53:03;4.58;74.50
18361;SHT31;9308;48.550;9.108;2023-02-22T06:55:31;4.68;74.21
18361;SHT31;9308;48.550;9.108;2023-02-22T06:57:57;4.54;74.04
18361;SHT31;9308;48.550;9.108;2023-02-22T07:00:24;4.59;74.06
18361;SHT31;9308;48.550;9.108;2023-02-22T07:02:50;4.57;73.92
18361;SHT31;9308;48.550;9.108;2023-02-22T07:05:18;4.93;73.66
18361;SHT31;9308;48.550;9.108;2023-02-22T07:07:44;5.01;73.18
18361;SHT31;9308;48.550;9.108;2023-02-22T07:10:22;5.07;73.13
18361;SHT31;9308;48.550;9.108;2023-02-22T07:12:48;5.27;72.48
18361;SHT31;9308;48.550;9.108;2023-02-22T07:15:16;5.34;72.32
18361;SHT31;9308;48.550;9.108;2023-02-22T07:17:42;5.63;71.82
18361;SHT31;9308;48.550;9.108;2023-02-22T07:20:08;5.48;72.08
18361;SHT31;9308;48.550;9.108;2023-02-22T07:22:37;5.56;72.00
18361;SHT31;9308;48.550;9.108;2023-02-22T07:25:07;5.93;71.17
18361;SHT31;9308;48.550;9.108;2023-02-22T07:27:35;6.10;70.39
18361;SHT31;9308;48.550;9.108;2023-02-22T07:30:01;6.21;70.32
18361;SHT31;9308;48.550;9.108;2023-02-22T07:32:26;6.14;70.46
18361;SHT31;9308;48.550;9.108;2023-02-22T07:34:54;6.41;70.42
18361;SHT31;9308;48.550;9.108;2023-02-22T07:37:20;6.53;69.46
18361;SHT31;9308;48.550;9.108;2023-02-22T07:39:45;6.59;68.63
18361;SHT31;9308;48.550;9.108;2023-02-22T07:42:11;6.65;68.48
18361;SHT31;9308;48.550;9.108;2023-02-22T07:44:36;6.76;68.26
18361;SHT31;9308;48.550;9.108;2023-02-22T07:47:02;6.65;69.45
18361;SHT31;9308;48.550;9.108;2023-02-22T07:49:27;6.79;69.38
18361;SHT31;9308;48.550;9.108;2023-02-22T07:51:52;6.69;70.75
18361;SHT31;9308;48.550;9.108;2023-02-22T07:54:18;6.60;70.42
18361;SHT31;9308;48.550;9.108;2023-02-22T07:56:45;6.65;70.05
18361;SHT31;9308;48.550;9.108;2023-02-22T07:59:10;6.77;69.68
18361;SHT31;9308;48.550;9.108;2023-02-22T08:01:36;6.85;69.31
18361;SHT31;9308;48.550;9.108;2023-02-22T08:04:01;6.83;69.09
18361;SHT31;9308;48.550;9.108;2023-02-22T08:06:27;6.73;69.17
18361;SHT31;9308;48.550;9.108;2023-02-22T08:08:54;7.01;68.80
18361;SHT31;9308;48.550;9.108;2023-02-22T08:11:19;7.17;68.13
18361;SHT31;9308;48.550;9.108;2023-02-22T08:13:45;7.28;67.77
18361;SHT31;9308;48.550;9.108;2023-02-22T08:16:10;7.46;67.82
18361;SHT31;9308;48.550;9.108;2023-02-22T08:18:36;7.59;66.85
18361;SHT31;9308;48.550;9.108;2023-02-22T08:21:03;7.59;67.30
18361;SHT31;9308;48.550;9.108;2023-02-22T08:23:28;7.70;66.99
18361;SHT31;9308;48.550;9.108;2023-02-22T08:25:54;7.99;66.18
18361;SHT31;9308;48.550;9.108;2023-02-22T08:28:22;8.11;66.35
18361;SHT31;9308;48.550;9.108;2023-02-22T08:30:48;8.39;65.97
18361;SHT31;9308;48.550;9.108;2023-02-22T08:33:15;8.44;65.93
18361;SHT31;9308;48.550;9.108;2023-02-22T08:35:44;8.59;66.21
18361;SHT31;9308;48.550;9.108;2023-02-22T08:38:20;8.92;65.70
18361;SHT31;9308;48.550;9.108;2023-02-22T08:40:46;9.30;64.45
18361;SHT31;9308;48.550;9.108;2023-02-22T08:43:12;9.43;63.61
18361;SHT31;9308;48.550;9.108;2023-02-22T08:45:38;9.82;63.34
18361;SHT31;9308;48.550;9.108;2023-02-22T08:48:04;9.79;62.89
18361;SHT31;9308;48.550;9.108;2023-02-22T08:50:31;9.73;62.68
18361;SHT31;9308;48.550;9.108;2023-02-22T08:53:01;9.89;62.45
18361;SHT31;9308;48.550;9.108;2023-02-22T08:55:32;10.00;61.49
18361;SHT31;9308;48.550;9.108;2023-02-22T08:57:59;10.27;60.94
18361;SHT31;9308;48.550;9.108;2023-02-22T09:00:25;10.46;60.93
18361;SHT31;9308;48.550;9.108;2023-02-22T09:02:53;10.41;60.30
18361;SHT31;9308;48.550;9.108;2023-02-22T09:05:20;10.32;60.30
18361;SHT31;9308;48.550;9.108;2023-02-22T09:07:45;10.39;60.47
18361;SHT31;9308;48.550;9.108;2023-02-22T09:10:23;10.49;59.60
18361;SHT31;9308;48.550;9.108;2023-02-22T09:12:53;10.63;59.56
18361;SHT31;9308;48.550;9.108;2023-02-22T09:15:23;10.49;59.45
18361;SHT31;9308;48.550;9.108;2023-02-22T09:17:49;10.80;59.05
18361;SHT31;9308;48.550;9.108;2023-02-22T09:20:16;10.93;58.05
18361;SHT31;9308;48.550;9.108;2023-02-22T09:22:44;10.82;57.93
18361;SHT31;9308;48.550;9.108;2023-02-22T09:25:09;10.79;59.09
18361;SHT31;9308;48.550;9.108;2023-02-22T09:27:35;10.87;58.72
18361;SHT31;9308;48.550;9.108;2023-02-22T09:30:01;10.87;59.36
18361;SHT31;9308;48.550;9.108;2023-02-22T09:32:27;10.94;59.09
18361;SHT31;9308;48.550;9.108;2023-02-22T09:34:53;11.12;58.12
18361;SHT31;9308;48.550;9.108;2023-02-22T09:37:20;11.18;58.24
18361;SHT31;9308;48.550;9.108;2023-02-22T09:39:45;11.38;56.95
18361;SHT31;9308;48.550;9.108;2023-02-22T09:42:30;11.77;56.75
18361;SHT31;9308;48.550;9.108;2023-02-22T09:47:34;12.23;54.30
18361;SHT31;9308;48.550;9.108;2023-02-22T09:50:08;12.44;52.37
18361;SHT31;9308;48.550;9.108;2023-02-22T09:58:06;13.32;50.76
18361;SHT31;9308;48.550;9.108;2023-02-22T10:00:36;13.34;50.76
18361;SHT31;9308;48.550;9.108;2023-02-22T10:03:47;13.48;49.95
18361;SHT31;9308;48.550;9.108;2023-02-22T10:06:09;13.59;51.48
18361;SHT31;9308;48.550;9.108;2023-02-22T10:08:36;13.65;51.59
18361;SHT31;9308;48.550;9.108;2023-02-22T10:14:12;14.14;52.34
18361;SHT31;9308;48.550;9.108;2023-02-22T10:19:45;14.31;50.03
18361;SHT31;9308;48.550;9.108;2023-02-22T10:24:59;14.30;50.54
18361;SHT31;9308;48.550;9.108;2023-02-22T10:31:07;15.04;49.68
18361;SHT31;9308;48.550;9.108;2023-02-22T10:34:00;15.21;49.07
18361;SHT31;9308;48.550;9.108;2023-02-22T10:36:26;15.41;49.20
18361;SHT31;9308;48.550;9.108;2023-02-22T10:39:01;15.35;48.41
18361;SHT31;9308;48.550;9.108;2023-02-22T10:41:39;15.40;47.78
18361;SHT31;9308;48.550;9.108;2023-02-22T10:44:06;15.40;49.40
18361;SHT31;9308;48.550;9.108;2023-02-22T10:46:32;15.08;49.99
18361;SHT31;9308;48.550;9.108;2023-02-22T10:49:04;15.03;49.62
18361;SHT31;9308;48.550;9.108;2023-02-22T10:51:32;14.92;49.30
18361;SHT31;9308;48.550;9.108;2023-02-22T10:54:22;14.69;48.94
18361;SHT31;9308;48.550;9.108;2023-02-22T10:56:52;14.66;49.18
18361;SHT31;9308;48.550;9.108;2023-02-22T10:59:28;14.99;49.37
18361;SHT31;9308;48.550;9.108;2023-02-22T11:01:55;15.00;49.35
18361;SHT31;9308;48.550;9.108;2023-02-22T11:04:21;15.17;49.78
18361;SHT31;9308;48.550;9.108;2023-02-22T11:07:12;15.17;48.21
18361;SHT31;9308;48.550;9.108;2023-02-22T11:09:52;15.17;49.49
18361;SHT31;9308;48.550;9.108;2023-02-22T11:14:51;15.48;48.40
18361;SHT31;9308;48.550;9.108;2023-02-22T11:17:23;15.63;48.08
18361;SHT31;9308;48.550;9.108;2023-02-22T11:19:50;15.72;46.81
18361;SHT31;9308;48.550;9.108;2023-02-22T11:24:57;16.09;45.59
18361;SHT31;9308;48.550;9.108;2023-02-22T11:32:57;16.23;45.12
18361;SHT31;9308;48.550;9.108;2023-02-22T11:37:52;15.78;46.68
18361;SHT31;9308;48.550;9.108;2023-02-22T11:40:21;15.99;45.89
18361;SHT31;9308;48.550;9.108;2023-02-22T11:42:48;16.07;46.15
18361;SHT31;9308;48.550;9.108;2023-02-22T11:45:20;15.89;47.27
18361;SHT31;9308;48.550;9.108;2023-02-22T11:47:53;16.05;47.49
18361;SHT31;9308;48.550;9.108;2023-02-22T11:50:38;16.00;46.47
18361;SHT31;9308;48.550;9.108;2023-02-22T11:56:11;15.41;49.03
18361;SHT31;9308;48.550;9.108;2023-02-22T11:58:49;15.35;49.24
18361;SHT31;9308;48.550;9.108;2023-02-22T12:01:42;15.20;49.18
18361;SHT31;9308;48.550;9.108;2023-02-22T12:07:36;16.28;48.41
18361;SHT31;9308;48.550;9.108;2023-02-22T12:18:12;16.38;47.11
18361;SHT31;9308;48.550;9.108;2023-02-22T12:20:50;16.62;47.62
18361;SHT31;9308;48.550;9.108;2023-02-22T12:23:22;17.16;45.68
18361;SHT31;9308;48.550;9.108;2023-02-22T12:26:08;18.55;42.77
18361;SHT31;9308;48.550;9.108;2023-02-22T12:29:03;21.20;38.03
18361;SHT31;9308;48.550;9.108;2023-02-22T12:31:38;24.70;33.81
18361;SHT31;9308;48.550;9.108;2023-02-22T12:34:28;26.62;29.95
18361;SHT31;9308;48.550;9.108;2023-02-22T12:37:07;25.84;30.96
18361;SHT31;9308;48.550;9.108;2023-02-22T12:39:41;23.66;34.37
18361;SHT31;9308;48.550;9.108;2023-02-22T12:42:17;24.49;32.93
18361;SHT31;9308;48.550;9.108;2023-02-22T12:44:49;23.64;33.75
18361;SHT31;9308;48.550;9.108;2023-02-22T12:47:29;22.25;35.82
18361;SHT31;9308;48.550;9.108;2023-02-22T12:50:04;22.61;36.10
18361;SHT31;9308;48.550;9.108;2023-02-22T12:53:03;25.42;33.13
18361;SHT31;9308;48.550;9.108;2023-02-22T12:55:36;24.93;32.33
18361;SHT31;9308;48.550;9.108;2023-02-22T12:58:08;26.09;30.64
18361;SHT31;9308;48.550;9.108;2023-02-22T13:01:00;24.87;32.86
18361;SHT31;9308;48.550;9.108;2023-02-22T13:03:41;25.58;32.32
18361;SHT31;9308;48.550;9.108;2023-02-22T13:06:30;24.40;33.15
18361;SHT31;9308;48.550;9.108;2023-02-22T13:12:06;24.81;33.37
18361;SHT31;9308;48.550;9.108;2023-02-22T13:19:46;24.42;34.02
18361;SHT31;9308;48.550;9.108;2023-02-22T13:22:28;21.97;36.35
18361;SHT31;9308;48.550;9.108;2023-02-22T13:25:10;20.92;38.82
18361;SHT31;9308;48.550;9.108;2023-02-22T13:27:42;20.50;38.70
18361;SHT31;9308;48.550;9.108;2023-02-22T13:36:23;19.48;40.39
18361;SHT31;9308;48.550;9.108;2023-02-22T13:39:26;19.23;42.20
18361;SHT31;9308;48.550;9.108;2023-02-22T13:50:18;18.57;43.66
18361;SHT31;9308;48.550;9.108;2023-02-22T13:52:47;18.51;43.46
18361;SHT31;9308;48.550;9.108;2023-02-22T13:55:21;18.64;43.38
18361;SHT31;9308;48.550;9.108;2023-02-22T13:57:48;18.23;43.72
18361;SHT31;9308;48.550;9.108;2023-02-22T14:08:06;18.09;44.56
18361;SHT31;9308;48.550;9.108;2023-02-22T14:13:05;18.06;44.49
18361;SHT31;9308;48.550;9.108;2023-02-22T14:15:31;18.06;44.27
18361;SHT31;9308;48.550;9.108;2023-02-22T14:17:58;17.75;44.85
18361;SHT31;9308;48.550;9.108;2023-02-22T14:20:28;17.97;43.97
18361;SHT31;9308;48.550;9.108;2023-02-22T14:23:25;17.95;44.17
18361;SHT31;9308;48.550;9.108;2023-02-22T14:25:52;17.87;43.80
18361;SHT31;9308;48.550;9.108;2023-02-22T14:31:10;17.83;45.32
18361;SHT31;9308;48.550;9.108;2023-02-22T14:39:26;17.42;45.47
18361;SHT31;9308;48.550;9.108;2023-02-22T14:50:24;16.79;47.40
18361;SHT31;9308;48.550;9.108;2023-02-22T14:53:03;16.38;48.27
18361;SHT31;9308;48.550;9.108;2023-02-22T14:55:33;16.62;47.81
18361;SHT31;9308;48.550;9.108;2023-02-22T14:58:21;16.03;49.91
18361;SHT31;9308;48.550;9.108;2023-02-22T15:00:49;16.34;49.02
18361;SHT31;9308;48.550;9.108;2023-02-22T15:03:32;16.41;49.70
18361;SHT31;9308;48.550;9.108;2023-02-22T15:08:44;16.52;49.16
18361;SHT31;9308;48.550;9.108;2023-02-22T15:11:21;16.58;49.12
18361;SHT31;9308;48.550;9.108;2023-02-22T15:13:50;16.30;50.13
18361;SHT31;9308;48.550;9.108;2023-02-22T15:16:16;16.33;50.24
18361;SHT31;9308;48.550;9.108;2023-02-22T15:18:44;16.41;49.89
18361;SHT31;9308;48.550;9.108;2023-02-22T15:21:16;16.54;49.46
18361;SHT31;9308;48.550;9.108;2023-02-22T15:23:59;16.17;50.32
18361;SHT31;9308;48.550;9.108;2023-02-22T15:26:45;16.06;51.37
18361;SHT31;9308;48.550;9.108;2023-02-22T15:29:18;16.12;50.81
18361;SHT31;9308;48.550;9.108;2023-02-22T15:31:44;15.78;52.06
18361;SHT31;9308;48.550;9.108;2023-02-22T15:36:40;15.48;52.46
18361;SHT31;9308;48.550;9.108;2023-02-22T15:39:18;15.54;53.03
18361;SHT31;9308;48.550;9.108;2023-02-22T15:41:44;15.61;53.14
18361;SHT31;9308;48.550;9.108;2023-02-22T15:44:09;15.47;53.36
18361;SHT31;9308;48.550;9.108;2023-02-22T15:46:38;15.06;53.46
18361;SHT31;9308;48.550;9.108;2023-02-22T15:49:18;14.85;53.64
18361;SHT31;9308;48.550;9.108;2023-02-22T15:51:45;14.96;54.37
18361;SHT31;9308;48.550;9.108;2023-02-22T15:54:13;14.69;54.77
18361;SHT31;9308;48.550;9.108;2023-02-22T15:56:46;14.68;54.71
18361;SHT31;9308;48.550;9.108;2023-02-22T15:59:13;14.55;55.29
18361;SHT31;9308;48.550;9.108;2023-02-22T16:01:41;14.52;54.91
18361;SHT31;9308;48.550;9.108;2023-02-22T16:04:15;14.48;55.00
18361;SHT31;9308;48.550;9.108;2023-02-22T16:06:41;14.55;54.60
18361;SHT31;9308;48.550;9.108;2023-02-22T16:09:09;14.28;55.04
18361;SHT31;9308;48.550;9.108;2023-02-22T16:11:38;14.41;54.53
18361;SHT31;9308;48.550;9.108;2023-02-22T16:16:48;14.17;55.04
18361;SHT31;9308;48.550;9.108;2023-02-22T16:21:56;14.04;54.75
18361;SHT31;9308;48.550;9.108;2023-02-22T16:24:28;13.87;55.94
18361;SHT31;9308;48.550;9.108;2023-02-22T16:29:29;14.17;55.15
18361;SHT31;9308;48.550;9.108;2023-02-22T16:31:54;14.16;54.95
18361;SHT31;9308;48.550;9.108;2023-02-22T16:34:20;14.06;55.71
18361;SHT31;9308;48.550;9.108;2023-02-22T16:36:47;14.24;55.24
18361;SHT31;9308;48.550;9.108;2023-02-22T16:39:24;14.22;54.84
18361;SHT31;9308;48.550;9.108;2023-02-22T16:41:52;14.03;56.01
18361;SHT31;9308;48.550;9.108;2023-02-22T16:44:19;13.93;56.17
18361;SHT31;9308;48.550;9.108;2023-02-22T16:46:44;13.94;56.68
18361;SHT31;9308;48.550;9.108;2023-02-22T16:49:11;13.51;57.83
18361;SHT31;9308;48.550;9.108;2023-02-22T16:51:45;13.46;57.69
18361;SHT31;9308;48.550;9.108;2023-02-22T16:54:13;13.48;57.76
18361;SHT31;9308;48.550;9.108;2023-02-22T16:56:39;13.49;58.52
18361;SHT31;9308;48.550;9.108;2023-02-22T16:59:10;13.31;59.15
18361;SHT31;9308;48.550;9.108;2023-02-22T17:01:38;13.34;58.73
18361;SHT31;9308;48.550;9.108;2023-02-22T17:04:11;13.32;58.74
18361;SHT31;9308;48.550;9.108;2023-02-22T17:06:39;13.08;59.85
18361;SHT31;9308;48.550;9.108;2023-02-22T17:09:04;13.18;59.16
18361;SHT31;9308;48.550;9.108;2023-02-22T17:11:29;13.03;59.25
18361;SHT31;9308;48.550;9.108;2023-02-22T17:13:55;12.73;60.74
18361;SHT31;9308;48.550;9.108;2023-02-22T17:16:20;12.72;60.69
18361;SHT31;9308;48.550;9.108;2023-02-22T17:18:47;12.42;61.15
18361;SHT31;9308;48.550;9.108;2023-02-22T17:21:14;12.65;61.00
18361;SHT31;9308;48.550;9.108;2023-02-22T17:23:41;12.37;61.70
18361;SHT31;9308;48.550;9.108;2023-02-22T17:26:10;12.58;60.07
18361;SHT31;9308;48.550;9.108;2023-02-22T17:28:38;12.32;61.73
18361;SHT31;9308;48.550;9.108;2023-02-22T17:31:04;12.53;61.42
18361;SHT31;9308;48.550;9.108;2023-02-22T17:33:33;12.41;61.64
18361;SHT31;9308;48.550;9.108;2023-02-22T17:36:00;12.27;62.47
18361;SHT31;9308;48.550;9.108;2023-02-22T17:38:29;12.04;62.45
18361;SHT31;9308;48.550;9.108;2023-02-22T17:40:57;12.45;61.07
18361;SHT31;9308;48.550;9.108;2023-02-22T17:43:24;12.31;61.08
18361;SHT31;9308;48.550;9.108;2023-02-22T17:45:50;12.41;60.54
18361;SHT31;9308;48.550;9.108;2023-02-22T17:48:16;12.18;61.96
18361;SHT31;9308;48.550;9.108;2023-02-22T17:50:44;12.16;61.89
18361;SHT31;9308;48.550;9.108;2023-02-22T17:53:10;12.25;61.14
18361;SHT31;9308;48.550;9.108;2023-02-22T17:55:38;12.23;62.09
18361;SHT31;9308;48.550;9.108;2023-02-22T17:58:05;12.24;62.13
18361;SHT31;9308;48.550;9.108;2023-02-22T18:00:34;12.20;62.62
18361;SHT31;9308;48.550;9.108;2023-02-22T18:03:09;12.13;62.38
18361;SHT31;9308;48.550;9.108;2023-02-22T18:05:42;11.67;62.93
18361;SHT31;9308;48.550;9.108;2023-02-22T18:08:08;11.69;63.24
18361;SHT31;9308;48.550;9.108;2023-02-22T18:10:34;11.73;63.51
18361;SHT31;9308;48.550;9.108;2023-02-22T18:13:00;11.80;63.03
18361;SHT31;9308;48.550;9.108;2023-02-22T18:15:27;11.73;62.99
18361;SHT31;9308;48.550;9.108;2023-02-22T18:17:54;11.93;61.97
18361;SHT31;9308;48.550;9.108;2023-02-22T18:20:20;12.01;61.76
18361;SHT31;9308;48.550;9.108;2023-02-22T18:23:10;12.16;61.55
18361;SHT31;9308;48.550;9.108;2023-02-22T18:25:36;12.14;61.12
18361;SHT31;9308;48.550;9.108;2023-02-22T18:28:04;12.23;61.36
18361;SHT31;9308;48.550;9.108;2023-02-22T18:30:31;12.20;61.52
18361;SHT31;9308;48.550;9.108;2023-02-22T18:32:56;12.10;61.99